createdAt,value
2022-07-27T00:00:34.029Z,26.72
2022-07-27T00:03:00.347Z,26.69
2022-07-27T00:05:26.728Z,26.66
2022-07-27T00:07:53.122Z,26.64
2022-07-27T00:10:19.487Z,26.62
2022-07-27T00:12:45.881Z,26.59
2022-07-27T00:15:12.248Z,26.54
2022-07-27T00:17:38.634Z,26.51
2022-07-27T00:20:05.111Z,26.49
2022-07-27T00:22:31.475Z,26.45
2022-07-27T00:24:57.843Z,26.43
2022-07-27T00:27:24.219Z,26.41
2022-07-27T00:29:50.609Z,26.36
2022-07-27T00:32:16.993Z,26.33
2022-07-27T00:34:43.352Z,26.31
2022-07-27T00:37:09.758Z,26.30
2022-07-27T00:39:36.115Z,26.34
2022-07-27T00:42:02.493Z,26.36
2022-07-27T00:44:28.861Z,26.38
2022-07-27T00:46:55.332Z,26.41
2022-07-27T00:49:21.769Z,26.38
2022-07-27T00:51:48.034Z,26.34
2022-07-27T00:54:14.437Z,26.29
2022-07-27T00:56:40.801Z,26.29
2022-07-27T00:59:07.192Z,26.25
2022-07-27T01:01:33.706Z,26.21
2022-07-27T01:03:59.926Z,26.14
2022-07-27T01:06:27.283Z,26.09
2022-07-27T01:08:52.681Z,26.08
2022-07-27T01:11:19.075Z,26.07
2022-07-27T01:13:45.450Z,26.09
2022-07-27T01:16:11.890Z,26.12
2022-07-27T01:18:38.209Z,26.08
2022-07-27T01:21:04.572Z,26.05
2022-07-27T01:23:30.971Z,26.05
2022-07-27T01:25:57.336Z,26.03
2022-07-27T01:28:23.718Z,26.02
2022-07-27T01:30:50.205Z,26.02
2022-07-27T01:33:16.505Z,25.99
2022-07-27T01:35:42.889Z,25.91
2022-07-27T01:38:09.266Z,25.87
2022-07-27T01:40:35.653Z,25.82
2022-07-27T01:43:02.030Z,25.77
2022-07-27T01:45:28.416Z,25.73
2022-07-27T01:47:54.799Z,25.70
2022-07-27T01:50:21.189Z,25.68
2022-07-27T01:52:47.589Z,25.63
2022-07-27T01:55:13.963Z,25.63
2022-07-27T01:57:40.346Z,25.62
2022-07-27T02:00:06.736Z,25.59
2022-07-27T02:02:33.162Z,25.58
2022-07-27T02:04:59.586Z,25.56
2022-07-27T02:07:25.908Z,25.55
2022-07-27T02:09:52.300Z,25.47
2022-07-27T02:12:18.665Z,25.41
2022-07-27T02:14:45.036Z,25.39
2022-07-27T02:17:11.400Z,25.35
2022-07-27T02:19:37.798Z,25.30
2022-07-27T02:22:04.194Z,25.29
2022-07-27T02:24:30.587Z,25.29
2022-07-27T02:26:56.966Z,25.31
2022-07-27T02:29:23.389Z,25.27
2022-07-27T02:31:49.771Z,25.21
2022-07-27T02:34:16.154Z,25.15
2022-07-27T02:36:42.570Z,25.11
2022-07-27T02:39:09.213Z,25.08
2022-07-27T02:41:35.325Z,25.06
2022-07-27T02:44:01.757Z,25.03
2022-07-27T02:46:28.203Z,24.97
2022-07-27T02:48:54.577Z,24.95
2022-07-27T02:51:20.898Z,24.93
2022-07-27T02:53:47.264Z,24.90
2022-07-27T02:56:13.625Z,24.91
2022-07-27T02:58:40.049Z,24.91
2022-07-27T03:01:06.967Z,24.91
2022-07-27T03:03:34.536Z,24.92
2022-07-27T03:05:59.167Z,24.90
2022-07-27T03:08:25.530Z,24.86
2022-07-27T03:10:51.921Z,24.90
2022-07-27T03:13:18.324Z,24.89
2022-07-27T03:15:44.758Z,24.87
2022-07-27T03:18:11.089Z,24.80
2022-07-27T03:20:37.459Z,24.77
2022-07-27T03:23:03.845Z,24.72
2022-07-27T03:25:30.235Z,24.69
2022-07-27T03:28:00.476Z,24.68
2022-07-27T03:30:22.983Z,24.65
2022-07-27T03:32:49.363Z,24.58
2022-07-27T03:35:15.733Z,24.45
2022-07-27T03:37:42.116Z,24.42
2022-07-27T03:40:08.496Z,24.45
2022-07-27T03:42:34.895Z,24.45
2022-07-27T03:45:01.276Z,24.48
2022-07-27T03:47:27.683Z,24.48
2022-07-27T03:49:54.080Z,24.47
2022-07-27T03:52:20.483Z,24.47
2022-07-27T03:54:46.843Z,24.42
2022-07-27T03:57:13.272Z,24.42
2022-07-27T03:59:39.627Z,24.42
2022-07-27T04:02:06.030Z,24.38
2022-07-27T04:04:32.384Z,24.36
2022-07-27T04:06:58.760Z,24.33
2022-07-27T04:09:25.142Z,24.36
2022-07-27T04:11:51.705Z,24.40
2022-07-27T04:14:17.895Z,24.40
2022-07-27T04:16:44.369Z,24.40
2022-07-27T04:19:10.922Z,24.43
2022-07-27T04:21:37.065Z,24.48
2022-07-27T04:24:03.449Z,24.54
2022-07-27T04:26:29.814Z,24.61
2022-07-27T04:28:56.183Z,24.67
2022-07-27T04:31:22.622Z,24.73
2022-07-27T04:33:48.930Z,24.79
2022-07-27T04:36:15.295Z,24.86
2022-07-27T04:38:41.683Z,24.91
2022-07-27T04:41:08.089Z,24.91
2022-07-27T04:43:34.456Z,24.94
2022-07-27T04:46:00.893Z,24.98
2022-07-27T04:48:27.228Z,25.02
2022-07-27T04:50:53.633Z,25.04
2022-07-27T04:53:20.015Z,25.09
2022-07-27T04:55:46.371Z,25.19
2022-07-27T04:58:12.782Z,25.28
2022-07-27T05:00:39.174Z,25.34
2022-07-27T05:03:05.606Z,25.39
2022-07-27T05:05:32.000Z,25.49
2022-07-27T05:07:58.399Z,25.58
2022-07-27T05:10:24.797Z,25.62
2022-07-27T05:12:51.176Z,25.65
2022-07-27T05:15:17.575Z,25.68
2022-07-27T05:17:43.905Z,25.71
2022-07-27T05:20:10.365Z,25.72
2022-07-27T05:22:39.876Z,25.82
2022-07-27T05:25:03.112Z,25.91
2022-07-27T05:27:29.526Z,26.01
2022-07-27T05:29:55.914Z,26.17
2022-07-27T05:32:22.285Z,26.32
2022-07-27T05:34:48.654Z,26.50
2022-07-27T05:37:15.039Z,26.68
2022-07-27T05:39:41.400Z,26.95
2022-07-27T05:42:07.788Z,27.21
2022-07-27T05:44:34.170Z,27.40
2022-07-27T05:47:00.563Z,27.54
2022-07-27T05:49:27.007Z,27.64
2022-07-27T05:51:53.336Z,27.87
2022-07-27T05:54:19.697Z,28.18
2022-07-27T05:56:46.072Z,28.71
2022-07-27T05:59:12.885Z,29.09
2022-07-27T06:01:38.921Z,29.12
2022-07-27T06:04:05.258Z,29.32
2022-07-27T06:06:31.579Z,29.46
2022-07-27T06:08:57.976Z,29.60
2022-07-27T06:11:24.367Z,29.93
2022-07-27T06:13:50.744Z,30.05
2022-07-27T06:16:17.177Z,30.28
2022-07-27T06:18:43.507Z,30.34
2022-07-27T06:21:09.916Z,30.57
2022-07-27T06:23:36.277Z,30.65
2022-07-27T06:26:02.689Z,30.61
2022-07-27T06:28:29.071Z,30.83
2022-07-27T06:30:55.477Z,31.00
2022-07-27T06:33:21.878Z,30.96
2022-07-27T06:35:48.279Z,31.17
2022-07-27T06:38:14.640Z,31.41
2022-07-27T06:40:41.056Z,31.47
2022-07-27T06:43:07.408Z,31.62
2022-07-27T06:45:33.826Z,31.64
2022-07-27T06:48:00.240Z,31.71
2022-07-27T06:50:26.655Z,31.91
2022-07-27T06:52:53.029Z,32.04
2022-07-27T06:55:19.395Z,32.17
2022-07-27T06:57:45.784Z,32.24
2022-07-27T07:00:12.214Z,32.31
2022-07-27T07:02:38.597Z,32.39
2022-07-27T07:05:05.007Z,32.49
2022-07-27T07:07:31.373Z,32.57
2022-07-27T07:09:57.768Z,32.65
2022-07-27T07:12:24.274Z,32.70
2022-07-27T07:14:50.666Z,32.73
2022-07-27T07:17:17.043Z,32.90
2022-07-27T07:19:43.444Z,32.99
2022-07-27T07:22:09.827Z,33.03
2022-07-27T07:24:36.213Z,33.09
2022-07-27T07:27:02.632Z,33.17
2022-07-27T07:29:29.008Z,33.22
2022-07-27T07:31:55.473Z,33.25
2022-07-27T07:34:21.781Z,33.29
2022-07-27T07:36:48.164Z,33.44
2022-07-27T07:39:15.185Z,33.49
2022-07-27T07:41:40.893Z,33.69
2022-07-27T07:44:07.271Z,33.87
2022-07-27T07:46:33.682Z,34.00
2022-07-27T07:49:00.046Z,33.99
2022-07-27T07:51:26.428Z,33.92
2022-07-27T07:53:52.837Z,34.10
2022-07-27T07:56:19.203Z,34.33
2022-07-27T07:58:45.574Z,34.42
2022-07-27T08:01:11.999Z,34.37
2022-07-27T08:03:38.355Z,34.39
2022-07-27T08:06:04.735Z,34.52
2022-07-27T08:08:31.162Z,34.58
2022-07-27T08:10:57.584Z,34.68
2022-07-27T08:13:23.923Z,34.66
2022-07-27T08:15:50.349Z,34.76
2022-07-27T08:18:16.713Z,34.81
2022-07-27T08:20:43.139Z,34.80
2022-07-27T08:23:09.540Z,34.82
2022-07-27T08:25:35.924Z,34.84
2022-07-27T08:28:02.867Z,35.05
2022-07-27T08:30:28.744Z,35.20
2022-07-27T08:32:55.267Z,35.26
2022-07-27T08:35:21.498Z,35.37
2022-07-27T08:37:47.888Z,35.44
2022-07-27T08:42:40.634Z,35.73
2022-07-27T08:45:07.090Z,35.81
2022-07-27T08:47:33.470Z,35.78
2022-07-27T08:49:59.888Z,35.73
2022-07-27T08:52:26.237Z,35.83
2022-07-27T08:54:52.596Z,35.96
2022-07-27T08:57:18.971Z,36.06
2022-07-27T08:59:45.358Z,36.11
2022-07-27T09:02:11.815Z,36.09
2022-07-27T09:04:38.130Z,36.14
2022-07-27T09:07:04.485Z,36.30
2022-07-27T09:09:30.919Z,36.42
2022-07-27T09:11:57.301Z,36.51
2022-07-27T09:14:23.666Z,36.61
2022-07-27T09:19:16.542Z,36.72
2022-07-27T09:21:42.794Z,36.91
2022-07-27T09:24:23.075Z,37.02
2022-07-27T09:26:35.630Z,37.04
2022-07-27T09:29:02.004Z,37.02
2022-07-27T09:31:28.452Z,37.03
2022-07-27T09:33:54.764Z,37.13
2022-07-27T09:36:21.161Z,37.24
2022-07-27T09:38:53.056Z,37.35
2022-07-27T09:41:13.923Z,37.46
2022-07-27T09:44:27.644Z,37.49
2022-07-27T09:46:06.788Z,37.48
2022-07-27T09:48:33.175Z,37.50
2022-07-27T09:51:02.798Z,37.56
2022-07-27T09:53:42.427Z,37.59
2022-07-27T09:55:57.110Z,37.74
2022-07-27T09:58:18.730Z,37.74
2022-07-27T10:00:45.117Z,37.77
2022-07-27T10:03:11.495Z,37.88
2022-07-27T10:05:37.881Z,37.88
2022-07-27T10:08:04.262Z,37.87
2022-07-27T10:10:30.631Z,37.82
2022-07-27T10:12:57.029Z,37.65
2022-07-27T10:15:23.427Z,37.62
2022-07-27T10:17:49.799Z,37.63
2022-07-27T10:20:16.191Z,37.59
2022-07-27T10:22:42.579Z,37.59
2022-07-27T10:25:08.956Z,37.59
2022-07-27T10:27:35.386Z,37.57
2022-07-27T10:30:01.761Z,37.63
2022-07-27T10:32:28.149Z,37.59
2022-07-27T10:34:54.519Z,37.59
2022-07-27T10:37:20.920Z,37.70
2022-07-27T10:39:47.286Z,37.76
2022-07-27T10:42:13.757Z,37.68
2022-07-27T10:44:40.174Z,37.63
2022-07-27T10:47:06.536Z,37.72
2022-07-27T10:49:33.016Z,37.83
2022-07-27T10:51:59.336Z,37.90
2022-07-27T10:54:26.056Z,37.98
2022-07-27T10:56:52.105Z,38.08
2022-07-27T10:59:18.499Z,38.14
2022-07-27T11:01:44.933Z,38.10
2022-07-27T11:04:11.651Z,38.14
2022-07-27T11:07:04.991Z,38.08
2022-07-27T11:09:53.363Z,37.99
2022-07-27T11:11:30.475Z,37.86
2022-07-27T11:13:56.847Z,37.81
2022-07-27T11:16:26.029Z,37.77
2022-07-27T11:18:53.006Z,37.87
2022-07-27T11:21:20.335Z,38.01
2022-07-27T11:23:50.961Z,38.13
2022-07-27T11:26:08.726Z,38.06
2022-07-27T11:28:35.109Z,37.91
2022-07-27T11:31:03.617Z,37.80
2022-07-27T11:33:27.873Z,37.78
2022-07-27T11:35:54.248Z,37.74
2022-07-27T11:38:20.642Z,37.68
2022-07-27T11:40:57.330Z,37.66
2022-07-27T11:43:14.572Z,37.79
2022-07-27T11:45:39.882Z,37.93
2022-07-27T11:48:06.214Z,38.08
2022-07-27T11:50:32.760Z,38.22
2022-07-27T11:53:01.815Z,38.31
2022-07-27T11:55:25.551Z,38.28
2022-07-27T11:57:51.973Z,38.19
2022-07-27T12:00:18.336Z,37.97
2022-07-27T12:02:44.814Z,37.85
2022-07-27T12:05:11.202Z,37.88
2022-07-27T12:07:37.522Z,38.02
2022-07-27T12:10:03.885Z,38.00
2022-07-27T12:12:30.258Z,37.92
2022-07-27T12:14:56.733Z,37.87
2022-07-27T12:17:23.046Z,37.72
2022-07-27T12:19:49.434Z,37.69
2022-07-27T12:22:15.824Z,37.68
2022-07-27T12:24:42.205Z,37.68
2022-07-27T12:27:08.577Z,37.67
2022-07-27T12:29:34.943Z,37.67
2022-07-27T12:32:01.331Z,37.62
2022-07-27T12:34:27.715Z,37.63
2022-07-27T12:36:54.084Z,37.64
2022-07-27T12:39:20.488Z,37.76
2022-07-27T12:41:46.864Z,37.91
2022-07-27T12:44:13.250Z,37.98
2022-07-27T12:46:39.634Z,38.21
2022-07-27T12:49:06.052Z,38.38
2022-07-27T12:51:32.397Z,38.40
2022-07-27T12:53:58.759Z,38.29
2022-07-27T12:56:27.358Z,38.12
2022-07-27T12:58:51.509Z,38.01
2022-07-27T13:01:17.928Z,37.94
2022-07-27T13:03:44.274Z,37.86
2022-07-27T13:06:13.044Z,37.82
2022-07-27T13:08:37.048Z,37.74
2022-07-27T13:11:03.442Z,37.59
2022-07-27T13:13:29.836Z,37.40
2022-07-27T13:15:56.225Z,37.36
2022-07-27T13:18:23.889Z,37.38
2022-07-27T13:20:48.971Z,37.44
2022-07-27T13:23:15.332Z,37.42
2022-07-27T13:25:43.490Z,37.38
2022-07-27T13:28:08.123Z,37.30
2022-07-27T13:30:34.497Z,37.23
2022-07-27T13:33:00.863Z,37.19
2022-07-27T13:35:27.286Z,37.15
2022-07-27T13:37:53.643Z,37.06
2022-07-27T13:40:20.038Z,36.98
2022-07-27T13:42:46.435Z,36.89
2022-07-27T13:45:12.828Z,36.90
2022-07-27T13:47:39.198Z,36.90
2022-07-27T13:50:05.597Z,36.89
2022-07-27T13:52:31.953Z,36.85
2022-07-27T13:54:58.353Z,36.79
2022-07-27T13:57:24.745Z,36.73
2022-07-27T13:59:51.142Z,36.64
2022-07-27T14:02:20.551Z,36.57
2022-07-27T14:04:43.904Z,36.47
2022-07-27T14:07:10.301Z,36.40
2022-07-27T14:09:36.664Z,36.35
2022-07-27T14:12:03.029Z,36.32
2022-07-27T14:14:29.399Z,36.30
2022-07-27T14:16:55.784Z,36.29
2022-07-27T14:19:22.193Z,36.24
2022-07-27T14:21:48.586Z,36.17
2022-07-27T14:24:14.973Z,36.15
2022-07-27T14:26:41.399Z,36.09
2022-07-27T14:29:07.751Z,36.04
2022-07-27T14:31:34.160Z,35.98
2022-07-27T14:34:00.506Z,35.89
2022-07-27T14:36:26.897Z,35.82
2022-07-27T14:38:53.311Z,35.75
2022-07-27T14:41:19.699Z,35.67
2022-07-27T14:43:46.061Z,35.50
2022-07-27T14:46:12.472Z,35.34
2022-07-27T14:49:07.165Z,35.17
2022-07-27T14:51:05.270Z,35.02
2022-07-27T14:53:31.605Z,34.93
2022-07-27T14:55:57.982Z,34.84
2022-07-27T14:58:24.344Z,34.77
2022-07-27T15:00:50.768Z,34.73
2022-07-27T15:03:17.308Z,34.69
2022-07-27T15:05:50.066Z,34.65
2022-07-27T15:08:10.051Z,34.58
2022-07-27T15:10:36.423Z,34.52
2022-07-27T15:13:02.811Z,34.45
2022-07-27T15:15:29.174Z,34.42
2022-07-27T15:17:55.563Z,34.36
2022-07-27T15:20:21.964Z,34.32
2022-07-27T15:22:48.346Z,34.27
2022-07-27T15:25:14.818Z,34.16
2022-07-27T15:27:41.201Z,34.09
2022-07-27T15:30:07.598Z,34.04
2022-07-27T15:32:33.984Z,34.01
2022-07-27T15:35:00.407Z,33.97
2022-07-27T15:37:26.771Z,33.92
2022-07-27T15:39:53.134Z,33.88
2022-07-27T15:42:19.516Z,33.85
2022-07-27T15:44:45.901Z,33.82
2022-07-27T15:47:12.346Z,33.80
2022-07-27T15:49:38.707Z,33.76
2022-07-27T15:52:05.060Z,33.68
2022-07-27T15:54:33.902Z,33.57
2022-07-27T15:56:57.853Z,33.47
2022-07-27T15:59:24.241Z,33.40
2022-07-27T16:01:50.662Z,33.32
2022-07-27T16:04:17.114Z,33.26
2022-07-27T16:06:43.409Z,33.20
2022-07-27T16:09:10.230Z,33.14
2022-07-27T16:11:36.198Z,33.08
2022-07-27T16:14:02.562Z,33.01
2022-07-27T16:16:29.051Z,32.95
2022-07-27T16:18:55.318Z,32.91
2022-07-27T16:21:21.680Z,32.84
2022-07-27T16:23:48.082Z,32.76
2022-07-27T16:26:14.462Z,32.71
2022-07-27T16:28:40.936Z,32.67
2022-07-27T16:31:07.400Z,32.63
2022-07-27T16:33:33.802Z,32.57
2022-07-27T16:36:00.171Z,32.52
2022-07-27T16:38:26.564Z,32.49
2022-07-27T16:40:52.939Z,32.47
2022-07-27T16:43:19.315Z,32.45
2022-07-27T16:45:45.707Z,32.43
2022-07-27T16:48:12.095Z,32.48
2022-07-27T16:50:38.477Z,32.49
2022-07-27T16:53:04.843Z,32.45
2022-07-27T16:55:31.264Z,32.36
2022-07-27T16:57:57.662Z,32.16
2022-07-27T17:00:24.035Z,32.19
2022-07-27T17:02:50.463Z,32.28
2022-07-27T17:05:16.841Z,32.30
2022-07-27T17:07:43.233Z,32.20
2022-07-27T17:10:09.609Z,32.19
2022-07-27T17:12:39.105Z,32.13
2022-07-27T17:15:02.345Z,32.05
2022-07-27T17:17:28.748Z,31.88
2022-07-27T17:19:55.119Z,31.89
2022-07-27T17:22:21.509Z,31.68
2022-07-27T17:24:47.877Z,31.51
2022-07-27T17:27:14.297Z,31.47
2022-07-27T17:29:40.665Z,31.46
2022-07-27T17:32:07.051Z,31.39
2022-07-27T17:34:33.439Z,31.33
2022-07-27T17:36:59.838Z,31.23
2022-07-27T17:39:26.220Z,31.10
2022-07-27T17:41:52.609Z,30.99
2022-07-27T17:44:18.968Z,30.91
2022-07-27T17:46:45.414Z,30.87
2022-07-27T17:49:12.118Z,30.76
2022-07-27T17:51:38.123Z,30.64
2022-07-27T17:54:04.537Z,30.62
2022-07-27T17:56:30.925Z,30.56
2022-07-27T17:59:09.303Z,30.55
2022-07-27T18:01:46.432Z,30.61
2022-07-27T18:03:50.154Z,30.69
2022-07-27T18:06:16.453Z,30.64
2022-07-27T18:08:42.838Z,30.53
2022-07-27T18:11:09.271Z,30.45
2022-07-27T18:13:39.410Z,30.50
2022-07-27T18:16:02.134Z,30.70
2022-07-27T18:18:28.415Z,30.84
2022-07-27T18:20:54.836Z,30.81
2022-07-27T18:23:21.199Z,30.71
2022-07-27T18:25:47.580Z,30.76
2022-07-27T18:28:13.975Z,30.81
2022-07-27T18:30:40.427Z,30.80
2022-07-27T18:33:06.750Z,30.77
2022-07-27T18:35:33.298Z,30.65
2022-07-27T18:37:59.679Z,30.51
2022-07-27T18:40:26.047Z,30.37
2022-07-27T18:42:52.480Z,30.29
2022-07-27T18:45:18.855Z,30.21
2022-07-27T18:47:49.345Z,30.10
2022-07-27T18:50:11.603Z,30.05
2022-07-27T18:52:38.010Z,30.00
2022-07-27T18:55:04.380Z,30.02
2022-07-27T18:57:30.753Z,30.05
2022-07-27T18:59:57.143Z,30.11
2022-07-27T19:02:23.652Z,30.14
2022-07-27T19:04:49.942Z,30.15
2022-07-27T19:07:16.319Z,30.10
2022-07-27T19:09:42.692Z,30.05
2022-07-27T19:12:09.801Z,30.00
2022-07-27T19:14:35.484Z,29.93
2022-07-27T19:17:01.957Z,29.82
2022-07-27T19:19:28.504Z,29.66
2022-07-27T19:21:54.699Z,29.49
2022-07-27T19:24:21.117Z,29.42
2022-07-27T19:26:47.478Z,29.39
2022-07-27T19:29:14.179Z,29.45
2022-07-27T19:31:40.280Z,29.26
2022-07-27T19:34:06.657Z,29.26
2022-07-27T19:36:33.078Z,29.14
2022-07-27T19:39:01.994Z,28.83
2022-07-27T19:41:25.813Z,28.78
2022-07-27T19:43:52.236Z,28.86
2022-07-27T19:46:18.636Z,28.79
2022-07-27T19:48:45.010Z,28.91
2022-07-27T19:51:11.355Z,28.98
2022-07-27T19:53:37.750Z,29.01
2022-07-27T19:56:04.135Z,29.05
2022-07-27T19:58:30.546Z,29.04
2022-07-27T20:00:56.998Z,29.03
2022-07-27T20:03:23.318Z,29.07
2022-07-27T20:05:49.714Z,29.10
2022-07-27T20:08:16.080Z,29.12
2022-07-27T20:10:42.479Z,29.14
2022-07-27T20:13:08.865Z,29.09
2022-07-27T20:15:35.226Z,29.05
2022-07-27T20:18:01.595Z,29.04
2022-07-27T20:20:27.977Z,29.02
2022-07-27T20:22:54.342Z,28.99
2022-07-27T20:25:20.712Z,28.98
2022-07-27T20:27:47.079Z,29.00
2022-07-27T20:30:13.448Z,29.00
2022-07-27T20:32:39.818Z,28.95
2022-07-27T21:19:14.790Z,28.33
2022-07-27T21:21:40.865Z,28.36
2022-07-27T21:24:07.248Z,28.37
2022-07-27T21:26:33.610Z,28.37
2022-07-27T21:28:59.993Z,28.35
2022-07-27T21:31:26.392Z,28.37
2022-07-27T21:33:52.832Z,28.43
2022-07-27T21:36:19.146Z,28.46
2022-07-27T21:38:45.547Z,28.45
2022-07-27T21:41:11.910Z,28.43
2022-07-27T21:43:38.297Z,28.42
2022-07-27T21:46:04.759Z,28.41
2022-07-27T21:48:31.049Z,28.37
2022-07-27T21:50:57.412Z,28.37
2022-07-27T21:53:23.828Z,28.39
2022-07-27T21:55:50.185Z,28.39
2022-07-27T21:58:16.554Z,28.41
2022-07-27T22:00:43.093Z,28.39
2022-07-27T22:03:09.458Z,28.37
2022-07-27T22:05:35.847Z,28.37
2022-07-27T22:08:02.220Z,28.38
2022-07-27T22:10:28.618Z,28.38
2022-07-27T22:12:54.978Z,28.33
2022-07-27T22:15:21.337Z,28.26
2022-07-27T22:17:50.449Z,28.22
2022-07-27T22:20:14.120Z,28.15
2022-07-27T22:22:40.551Z,28.08
2022-07-27T22:25:06.979Z,28.02
2022-07-27T22:27:33.365Z,27.99
2022-07-27T22:29:59.854Z,28.02
2022-07-27T22:32:26.329Z,28.07
2022-07-27T22:34:52.627Z,28.11
2022-07-27T22:37:19.155Z,28.16
2022-07-27T22:39:45.583Z,28.20
2022-07-27T22:42:12.010Z,28.17
2022-07-27T22:44:38.450Z,28.15
2022-07-27T22:47:04.817Z,28.17
2022-07-27T22:49:31.222Z,28.17
2022-07-27T22:51:57.640Z,28.17
2022-07-27T22:54:24.079Z,28.18
2022-07-27T22:56:50.515Z,28.19
2022-07-27T22:59:16.943Z,28.20
2022-07-27T23:01:46.360Z,28.18
2022-07-27T23:04:09.754Z,28.16
2022-07-27T23:06:36.083Z,28.19
2022-07-27T23:09:02.507Z,28.17
2022-07-27T23:11:28.906Z,28.13
2022-07-27T23:13:55.288Z,28.15
2022-07-27T23:16:21.704Z,28.14
2022-07-27T23:18:48.021Z,28.12
2022-07-27T23:21:14.418Z,28.11
2022-07-27T23:23:41.068Z,28.11
2022-07-27T23:26:07.174Z,28.10
2022-07-27T23:28:33.562Z,28.09
2022-07-27T23:31:00.034Z,28.07
2022-07-27T23:33:26.393Z,28.11
2022-07-27T23:35:52.769Z,28.13
2022-07-27T23:38:19.157Z,28.17
2022-07-27T23:40:45.555Z,28.18
2022-07-27T23:43:11.923Z,28.20
2022-07-27T23:45:38.366Z,28.20
2022-07-27T23:48:04.725Z,28.22
2022-07-27T23:50:31.119Z,28.25
2022-07-27T23:52:57.550Z,28.25
2022-07-27T23:55:23.921Z,28.24
2022-07-27T23:57:50.288Z,28.24
